sensor_id;sensor_type;location;lat;lon;timestamp;P1;durP1;ratioP1;P2;durP2;ratioP2
48975;SDS011;34791;52.752;8.346;2023-05-10T00:01:53;51.80;;;23.92;;
48975;SDS011;34791;52.752;8.346;2023-05-10T00:04:19;53.80;;;24.33;;
48975;SDS011;34791;52.752;8.346;2023-05-10T00:06:44;61.63;;;24.25;;
48975;SDS011;34791;52.752;8.346;2023-05-10T00:09:10;50.10;;;23.33;;
48975;SDS011;34791;52.752;8.346;2023-05-10T00:11:35;50.38;;;24.13;;
48975;SDS011;34791;52.752;8.346;2023-05-10T00:14:01;53.78;;;24.17;;
48975;SDS011;34791;52.752;8.346;2023-05-10T00:16:27;51.42;;;24.83;;
48975;SDS011;34791;52.752;8.346;2023-05-10T00:18:52;53.03;;;24.25;;
48975;SDS011;34791;52.752;8.346;2023-05-10T00:21:17;54.20;;;25.17;;
48975;SDS011;34791;52.752;8.346;2023-05-10T00:23:43;52.17;;;24.92;;
48975;SDS011;34791;52.752;8.346;2023-05-10T00:26:08;51.30;;;24.73;;
48975;SDS011;34791;52.752;8.346;2023-05-10T00:28:33;58.40;;;25.95;;
48975;SDS011;34791;52.752;8.346;2023-05-10T00:30:59;55.97;;;25.52;;
48975;SDS011;34791;52.752;8.346;2023-05-10T00:33:24;57.22;;;25.13;;
48975;SDS011;34791;52.752;8.346;2023-05-10T00:35:49;57.78;;;25.10;;
48975;SDS011;34791;52.752;8.346;2023-05-10T00:38:15;58.05;;;25.58;;
48975;SDS011;34791;52.752;8.346;2023-05-10T00:40:40;55.13;;;26.02;;
48975;SDS011;34791;52.752;8.346;2023-05-10T00:43:05;51.63;;;24.83;;
48975;SDS011;34791;52.752;8.346;2023-05-10T00:45:32;56.33;;;24.83;;
48975;SDS011;34791;52.752;8.346;2023-05-10T00:47:58;56.75;;;24.55;;
48975;SDS011;34791;52.752;8.346;2023-05-10T00:50:24;55.17;;;24.60;;
48975;SDS011;34791;52.752;8.346;2023-05-10T00:52:50;53.20;;;24.15;;
48975;SDS011;34791;52.752;8.346;2023-05-10T00:55:16;58.55;;;25.15;;
48975;SDS011;34791;52.752;8.346;2023-05-10T00:57:42;61.70;;;26.05;;
48975;SDS011;34791;52.752;8.346;2023-05-10T01:03:10;68.28;;;26.17;;
48975;SDS011;34791;52.752;8.346;2023-05-10T01:05:36;53.42;;;24.30;;
48975;SDS011;34791;52.752;8.346;2023-05-10T01:08:01;52.65;;;24.50;;
48975;SDS011;34791;52.752;8.346;2023-05-10T01:10:27;56.78;;;24.35;;
48975;SDS011;34791;52.752;8.346;2023-05-10T01:12:53;48.40;;;22.80;;
48975;SDS011;34791;52.752;8.346;2023-05-10T01:15:18;60.97;;;25.83;;
48975;SDS011;34791;52.752;8.346;2023-05-10T01:17:45;105.40;;;28.77;;
48975;SDS011;34791;52.752;8.346;2023-05-10T01:20:11;94.00;;;29.58;;
48975;SDS011;34791;52.752;8.346;2023-05-10T01:25:36;68.95;;;26.15;;
48975;SDS011;34791;52.752;8.346;2023-05-10T01:28:14;91.65;;;29.42;;
48975;SDS011;34791;52.752;8.346;2023-05-10T01:33:38;109.68;;;29.40;;
48975;SDS011;34791;52.752;8.346;2023-05-10T01:36:19;110.45;;;29.85;;
48975;SDS011;34791;52.752;8.346;2023-05-10T01:41:53;79.35;;;28.50;;
48975;SDS011;34791;52.752;8.346;2023-05-10T01:44:56;72.00;;;26.88;;
48975;SDS011;34791;52.752;8.346;2023-05-10T01:47:12;72.10;;;26.90;;
48975;SDS011;34791;52.752;8.346;2023-05-10T01:49:43;70.25;;;26.20;;
48975;SDS011;34791;52.752;8.346;2023-05-10T01:52:12;69.43;;;27.30;;
48975;SDS011;34791;52.752;8.346;2023-05-10T01:54:38;70.20;;;27.25;;
48975;SDS011;34791;52.752;8.346;2023-05-10T01:57:06;76.15;;;27.08;;
48975;SDS011;34791;52.752;8.346;2023-05-10T01:59:34;68.07;;;26.10;;
48975;SDS011;34791;52.752;8.346;2023-05-10T02:02:05;84.63;;;28.02;;
48975;SDS011;34791;52.752;8.346;2023-05-10T02:04:34;74.45;;;27.40;;
48975;SDS011;34791;52.752;8.346;2023-05-10T02:07:00;67.38;;;27.13;;
48975;SDS011;34791;52.752;8.346;2023-05-10T02:09:25;70.90;;;26.48;;
48975;SDS011;34791;52.752;8.346;2023-05-10T02:11:52;74.90;;;27.70;;
48975;SDS011;34791;52.752;8.346;2023-05-10T02:14:18;74.05;;;27.65;;
48975;SDS011;34791;52.752;8.346;2023-05-10T02:16:45;70.43;;;26.90;;
48975;SDS011;34791;52.752;8.346;2023-05-10T02:19:11;71.20;;;26.95;;
48975;SDS011;34791;52.752;8.346;2023-05-10T02:21:37;71.97;;;27.83;;
48975;SDS011;34791;52.752;8.346;2023-05-10T02:24:02;76.80;;;27.05;;
48975;SDS011;34791;52.752;8.346;2023-05-10T02:26:29;79.95;;;26.98;;
48975;SDS011;34791;52.752;8.346;2023-05-10T02:28:55;74.15;;;27.80;;
48975;SDS011;34791;52.752;8.346;2023-05-10T02:31:22;83.20;;;28.38;;
48975;SDS011;34791;52.752;8.346;2023-05-10T02:33:47;84.97;;;29.98;;
48975;SDS011;34791;52.752;8.346;2023-05-10T02:36:13;69.78;;;27.67;;
48975;SDS011;34791;52.752;8.346;2023-05-10T02:38:38;75.20;;;28.88;;
48975;SDS011;34791;52.752;8.346;2023-05-10T02:41:04;73.43;;;27.55;;
48975;SDS011;34791;52.752;8.346;2023-05-10T02:43:30;79.65;;;28.70;;
48975;SDS011;34791;52.752;8.346;2023-05-10T02:45:56;72.55;;;28.33;;
48975;SDS011;34791;52.752;8.346;2023-05-10T02:48:22;74.95;;;28.48;;
48975;SDS011;34791;52.752;8.346;2023-05-10T02:50:47;76.28;;;28.92;;
48975;SDS011;34791;52.752;8.346;2023-05-10T02:53:18;67.35;;;27.40;;
48975;SDS011;34791;52.752;8.346;2023-05-10T02:55:46;73.78;;;27.70;;
48975;SDS011;34791;52.752;8.346;2023-05-10T02:58:14;74.78;;;27.98;;
48975;SDS011;34791;52.752;8.346;2023-05-10T03:00:39;79.07;;;28.77;;
48975;SDS011;34791;52.752;8.346;2023-05-10T03:03:04;90.53;;;29.45;;
48975;SDS011;34791;52.752;8.346;2023-05-10T03:05:30;81.38;;;28.02;;
48975;SDS011;34791;52.752;8.346;2023-05-10T03:07:55;74.53;;;27.45;;
48975;SDS011;34791;52.752;8.346;2023-05-10T03:10:22;74.80;;;27.98;;
48975;SDS011;34791;52.752;8.346;2023-05-10T03:16:12;123.38;;;30.85;;
48975;SDS011;34791;52.752;8.346;2023-05-10T03:18:42;26.83;;;11.20;;
48975;SDS011;34791;52.752;8.346;2023-05-10T03:21:10;31.95;;;12.85;;
48975;SDS011;34791;52.752;8.346;2023-05-10T03:23:44;23.10;;;10.20;;
48975;SDS011;34791;52.752;8.346;2023-05-10T03:26:12;18.23;;;7.40;;
48975;SDS011;34791;52.752;8.346;2023-05-10T03:28:42;19.75;;;8.10;;
48975;SDS011;34791;52.752;8.346;2023-05-10T03:31:07;20.20;;;6.15;;
48975;SDS011;34791;52.752;8.346;2023-05-10T03:33:33;15.65;;;5.97;;
48975;SDS011;34791;52.752;8.346;2023-05-10T03:35:58;14.55;;;5.57;;
48975;SDS011;34791;52.752;8.346;2023-05-10T03:38:23;12.10;;;5.30;;
48975;SDS011;34791;52.752;8.346;2023-05-10T03:40:49;14.03;;;5.10;;
48975;SDS011;34791;52.752;8.346;2023-05-10T03:43:14;18.30;;;6.10;;
48975;SDS011;34791;52.752;8.346;2023-05-10T03:45:40;13.82;;;5.40;;
48975;SDS011;34791;52.752;8.346;2023-05-10T03:48:05;14.20;;;5.95;;
48975;SDS011;34791;52.752;8.346;2023-05-10T03:50:31;21.42;;;6.82;;
48975;SDS011;34791;52.752;8.346;2023-05-10T03:52:56;20.85;;;6.95;;
48975;SDS011;34791;52.752;8.346;2023-05-10T03:55:22;18.88;;;7.80;;
48975;SDS011;34791;52.752;8.346;2023-05-10T03:57:47;17.55;;;6.97;;
48975;SDS011;34791;52.752;8.346;2023-05-10T04:00:14;18.38;;;7.65;;
48975;SDS011;34791;52.752;8.346;2023-05-10T04:02:40;18.63;;;7.72;;
48975;SDS011;34791;52.752;8.346;2023-05-10T04:05:05;22.05;;;7.75;;
48975;SDS011;34791;52.752;8.346;2023-05-10T04:07:31;20.73;;;8.50;;
48975;SDS011;34791;52.752;8.346;2023-05-10T04:09:56;21.02;;;8.95;;
48975;SDS011;34791;52.752;8.346;2023-05-10T04:12:22;23.63;;;9.33;;
48975;SDS011;34791;52.752;8.346;2023-05-10T04:14:47;25.80;;;10.60;;
48975;SDS011;34791;52.752;8.346;2023-05-10T04:17:12;21.77;;;9.07;;
48975;SDS011;34791;52.752;8.346;2023-05-10T04:19:38;25.63;;;9.80;;
48975;SDS011;34791;52.752;8.346;2023-05-10T04:22:03;19.20;;;9.20;;
48975;SDS011;34791;52.752;8.346;2023-05-10T04:24:28;20.80;;;9.85;;
48975;SDS011;34791;52.752;8.346;2023-05-10T04:26:54;23.80;;;9.93;;
48975;SDS011;34791;52.752;8.346;2023-05-10T04:29:19;22.63;;;10.43;;
48975;SDS011;34791;52.752;8.346;2023-05-10T04:31:45;21.95;;;9.15;;
48975;SDS011;34791;52.752;8.346;2023-05-10T04:34:10;29.10;;;10.95;;
48975;SDS011;34791;52.752;8.346;2023-05-10T04:36:36;23.20;;;10.48;;
48975;SDS011;34791;52.752;8.346;2023-05-10T04:39:02;21.83;;;9.50;;
48975;SDS011;34791;52.752;8.346;2023-05-10T04:41:28;23.20;;;9.67;;
48975;SDS011;34791;52.752;8.346;2023-05-10T04:43:53;20.23;;;8.73;;
48975;SDS011;34791;52.752;8.346;2023-05-10T04:46:19;21.10;;;9.40;;
48975;SDS011;34791;52.752;8.346;2023-05-10T04:48:44;23.97;;;9.30;;
48975;SDS011;34791;52.752;8.346;2023-05-10T04:51:09;24.33;;;10.33;;
48975;SDS011;34791;52.752;8.346;2023-05-10T04:53:34;24.93;;;9.77;;
48975;SDS011;34791;52.752;8.346;2023-05-10T04:56:00;28.90;;;10.57;;
48975;SDS011;34791;52.752;8.346;2023-05-10T04:58:25;24.00;;;9.07;;
48975;SDS011;34791;52.752;8.346;2023-05-10T05:00:51;26.17;;;10.10;;
48975;SDS011;34791;52.752;8.346;2023-05-10T05:03:16;32.83;;;11.37;;
48975;SDS011;34791;52.752;8.346;2023-05-10T05:05:41;36.23;;;11.73;;
48975;SDS011;34791;52.752;8.346;2023-05-10T05:08:06;36.80;;;11.70;;
48975;SDS011;34791;52.752;8.346;2023-05-10T05:10:32;30.77;;;11.37;;
48975;SDS011;34791;52.752;8.346;2023-05-10T05:12:57;33.90;;;11.33;;
48975;SDS011;34791;52.752;8.346;2023-05-10T05:15:22;31.83;;;11.47;;
48975;SDS011;34791;52.752;8.346;2023-05-10T05:17:48;32.77;;;11.27;;
48975;SDS011;34791;52.752;8.346;2023-05-10T05:20:13;31.40;;;11.30;;
48975;SDS011;34791;52.752;8.346;2023-05-10T05:22:39;30.57;;;10.77;;
48975;SDS011;34791;52.752;8.346;2023-05-10T05:25:04;38.40;;;13.80;;
48975;SDS011;34791;52.752;8.346;2023-05-10T05:27:30;27.40;;;11.30;;
48975;SDS011;34791;52.752;8.346;2023-05-10T05:29:56;33.33;;;11.77;;
48975;SDS011;34791;52.752;8.346;2023-05-10T05:32:22;30.27;;;11.50;;
48975;SDS011;34791;52.752;8.346;2023-05-10T05:34:47;31.03;;;11.27;;
48975;SDS011;34791;52.752;8.346;2023-05-10T05:37:16;33.17;;;12.00;;
48975;SDS011;34791;52.752;8.346;2023-05-10T05:39:41;33.93;;;11.60;;
48975;SDS011;34791;52.752;8.346;2023-05-10T05:42:07;29.70;;;10.80;;
48975;SDS011;34791;52.752;8.346;2023-05-10T05:44:33;32.40;;;11.50;;
48975;SDS011;34791;52.752;8.346;2023-05-10T05:46:58;40.53;;;13.27;;
48975;SDS011;34791;52.752;8.346;2023-05-10T05:49:23;35.60;;;12.93;;
48975;SDS011;34791;52.752;8.346;2023-05-10T05:51:48;40.40;;;13.30;;
48975;SDS011;34791;52.752;8.346;2023-05-10T05:54:15;37.60;;;12.83;;
48975;SDS011;34791;52.752;8.346;2023-05-10T05:56:40;37.30;;;13.07;;
48975;SDS011;34791;52.752;8.346;2023-05-10T05:59:05;32.60;;;12.88;;
48975;SDS011;34791;52.752;8.346;2023-05-10T06:01:31;28.33;;;11.53;;
48975;SDS011;34791;52.752;8.346;2023-05-10T06:03:56;30.50;;;12.52;;
48975;SDS011;34791;52.752;8.346;2023-05-10T06:06:21;29.27;;;12.02;;
48975;SDS011;34791;52.752;8.346;2023-05-10T06:08:47;34.90;;;13.30;;
48975;SDS011;34791;52.752;8.346;2023-05-10T06:11:12;28.25;;;10.82;;
48975;SDS011;34791;52.752;8.346;2023-05-10T06:13:37;22.53;;;10.33;;
48975;SDS011;34791;52.752;8.346;2023-05-10T06:16:03;27.70;;;10.90;;
48975;SDS011;34791;52.752;8.346;2023-05-10T06:18:28;26.27;;;11.27;;
48975;SDS011;34791;52.752;8.346;2023-05-10T06:20:53;24.20;;;10.43;;
48975;SDS011;34791;52.752;8.346;2023-05-10T06:23:19;26.67;;;10.93;;
48975;SDS011;34791;52.752;8.346;2023-05-10T06:25:44;30.17;;;11.97;;
48975;SDS011;34791;52.752;8.346;2023-05-10T06:28:09;22.20;;;10.10;;
48975;SDS011;34791;52.752;8.346;2023-05-10T06:30:35;27.27;;;11.00;;
48975;SDS011;34791;52.752;8.346;2023-05-10T06:33:01;23.80;;;10.23;;
48975;SDS011;34791;52.752;8.346;2023-05-10T06:35:26;21.03;;;10.37;;
48975;SDS011;34791;52.752;8.346;2023-05-10T06:37:51;24.47;;;11.20;;
48975;SDS011;34791;52.752;8.346;2023-05-10T06:40:17;25.87;;;11.30;;
48975;SDS011;34791;52.752;8.346;2023-05-10T06:42:42;21.60;;;10.10;;
48975;SDS011;34791;52.752;8.346;2023-05-10T06:45:07;22.50;;;10.25;;
48975;SDS011;34791;52.752;8.346;2023-05-10T06:47:34;16.47;;;8.53;;
48975;SDS011;34791;52.752;8.346;2023-05-10T06:49:59;23.13;;;11.03;;
48975;SDS011;34791;52.752;8.346;2023-05-10T06:52:24;22.83;;;10.07;;
48975;SDS011;34791;52.752;8.346;2023-05-10T06:54:50;20.92;;;10.52;;
48975;SDS011;34791;52.752;8.346;2023-05-10T06:57:15;19.02;;;10.68;;
48975;SDS011;34791;52.752;8.346;2023-05-10T06:59:40;16.90;;;9.18;;
48975;SDS011;34791;52.752;8.346;2023-05-10T07:02:06;19.50;;;9.87;;
48975;SDS011;34791;52.752;8.346;2023-05-10T07:04:31;17.52;;;9.15;;
48975;SDS011;34791;52.752;8.346;2023-05-10T07:06:56;17.90;;;9.82;;
48975;SDS011;34791;52.752;8.346;2023-05-10T07:09:22;15.35;;;9.02;;
48975;SDS011;34791;52.752;8.346;2023-05-10T07:11:49;16.13;;;9.45;;
48975;SDS011;34791;52.752;8.346;2023-05-10T07:14:14;14.60;;;8.32;;
48975;SDS011;34791;52.752;8.346;2023-05-10T07:16:40;15.45;;;8.68;;
48975;SDS011;34791;52.752;8.346;2023-05-10T07:19:05;13.20;;;7.72;;
48975;SDS011;34791;52.752;8.346;2023-05-10T07:21:30;13.65;;;8.00;;
48975;SDS011;34791;52.752;8.346;2023-05-10T07:23:56;15.05;;;8.30;;
48975;SDS011;34791;52.752;8.346;2023-05-10T07:26:21;15.00;;;9.25;;
48975;SDS011;34791;52.752;8.346;2023-05-10T07:28:47;14.77;;;8.63;;
48975;SDS011;34791;52.752;8.346;2023-05-10T07:31:12;19.67;;;9.88;;
48975;SDS011;34791;52.752;8.346;2023-05-10T07:33:38;20.15;;;10.20;;
48975;SDS011;34791;52.752;8.346;2023-05-10T07:36:03;21.27;;;11.00;;
48975;SDS011;34791;52.752;8.346;2023-05-10T07:38:28;21.00;;;11.40;;
48975;SDS011;34791;52.752;8.346;2023-05-10T07:40:54;17.77;;;9.90;;
48975;SDS011;34791;52.752;8.346;2023-05-10T07:43:19;18.30;;;9.30;;
48975;SDS011;34791;52.752;8.346;2023-05-10T07:45:44;21.98;;;11.80;;
48975;SDS011;34791;52.752;8.346;2023-05-10T07:48:10;19.63;;;10.45;;
48975;SDS011;34791;52.752;8.346;2023-05-10T07:50:35;17.58;;;10.30;;
48975;SDS011;34791;52.752;8.346;2023-05-10T07:53:00;21.88;;;9.95;;
48975;SDS011;34791;52.752;8.346;2023-05-10T07:55:26;17.17;;;9.50;;
48975;SDS011;34791;52.752;8.346;2023-05-10T07:57:51;19.25;;;11.52;;
48975;SDS011;34791;52.752;8.346;2023-05-10T08:00:17;15.48;;;9.55;;
48975;SDS011;34791;52.752;8.346;2023-05-10T08:02:42;17.50;;;9.52;;
48975;SDS011;34791;52.752;8.346;2023-05-10T08:05:08;18.92;;;9.85;;
48975;SDS011;34791;52.752;8.346;2023-05-10T08:07:33;17.13;;;10.52;;
48975;SDS011;34791;52.752;8.346;2023-05-10T08:09:58;17.45;;;10.32;;
48975;SDS011;34791;52.752;8.346;2023-05-10T08:12:24;16.83;;;9.05;;
48975;SDS011;34791;52.752;8.346;2023-05-10T08:14:49;16.65;;;9.40;;
48975;SDS011;34791;52.752;8.346;2023-05-10T08:17:14;17.77;;;9.18;;
48975;SDS011;34791;52.752;8.346;2023-05-10T08:19:39;15.75;;;9.80;;
48975;SDS011;34791;52.752;8.346;2023-05-10T08:22:05;16.50;;;8.93;;
48975;SDS011;34791;52.752;8.346;2023-05-10T08:24:30;15.13;;;9.10;;
48975;SDS011;34791;52.752;8.346;2023-05-10T08:26:55;16.02;;;9.93;;
48975;SDS011;34791;52.752;8.346;2023-05-10T08:29:21;16.08;;;8.57;;
48975;SDS011;34791;52.752;8.346;2023-05-10T08:31:46;15.02;;;8.88;;
48975;SDS011;34791;52.752;8.346;2023-05-10T08:34:11;14.18;;;7.95;;
48975;SDS011;34791;52.752;8.346;2023-05-10T08:36:36;11.25;;;6.40;;
48975;SDS011;34791;52.752;8.346;2023-05-10T08:39:02;11.75;;;6.30;;
48975;SDS011;34791;52.752;8.346;2023-05-10T08:41:27;9.43;;;5.40;;
48975;SDS011;34791;52.752;8.346;2023-05-10T08:43:53;8.43;;;4.85;;
48975;SDS011;34791;52.752;8.346;2023-05-10T08:46:19;10.20;;;5.40;;
48975;SDS011;34791;52.752;8.346;2023-05-10T08:48:45;9.48;;;5.45;;
48975;SDS011;34791;52.752;8.346;2023-05-10T08:51:14;10.82;;;5.68;;
48975;SDS011;34791;52.752;8.346;2023-05-10T08:53:39;11.85;;;5.60;;
48975;SDS011;34791;52.752;8.346;2023-05-10T08:56:05;10.68;;;6.07;;
48975;SDS011;34791;52.752;8.346;2023-05-10T08:58:30;11.98;;;6.53;;
48975;SDS011;34791;52.752;8.346;2023-05-10T09:00:56;10.57;;;6.32;;
48975;SDS011;34791;52.752;8.346;2023-05-10T09:03:22;10.65;;;6.40;;
48975;SDS011;34791;52.752;8.346;2023-05-10T09:05:50;11.90;;;7.20;;
48975;SDS011;34791;52.752;8.346;2023-05-10T09:08:15;12.15;;;6.85;;
48975;SDS011;34791;52.752;8.346;2023-05-10T09:10:42;11.70;;;6.93;;
48975;SDS011;34791;52.752;8.346;2023-05-10T09:13:08;14.48;;;7.90;;
48975;SDS011;34791;52.752;8.346;2023-05-10T09:15:34;12.68;;;6.80;;
48975;SDS011;34791;52.752;8.346;2023-05-10T09:18:00;13.68;;;7.70;;
48975;SDS011;34791;52.752;8.346;2023-05-10T09:20:27;16.13;;;8.80;;
48975;SDS011;34791;52.752;8.346;2023-05-10T09:22:53;15.27;;;8.60;;
48975;SDS011;34791;52.752;8.346;2023-05-10T09:25:18;14.27;;;8.52;;
48975;SDS011;34791;52.752;8.346;2023-05-10T09:27:44;14.57;;;9.05;;
48975;SDS011;34791;52.752;8.346;2023-05-10T09:30:10;15.20;;;8.80;;
48975;SDS011;34791;52.752;8.346;2023-05-10T09:32:43;16.02;;;9.02;;
48975;SDS011;34791;52.752;8.346;2023-05-10T09:35:19;14.57;;;9.75;;
48975;SDS011;34791;52.752;8.346;2023-05-10T09:37:45;16.20;;;10.48;;
48975;SDS011;34791;52.752;8.346;2023-05-10T09:40:14;22.48;;;10.40;;
48975;SDS011;34791;52.752;8.346;2023-05-10T09:42:41;14.60;;;9.52;;
48975;SDS011;34791;52.752;8.346;2023-05-10T09:45:07;14.65;;;9.43;;
48975;SDS011;34791;52.752;8.346;2023-05-10T09:47:33;14.88;;;8.90;;
48975;SDS011;34791;52.752;8.346;2023-05-10T09:49:58;10.40;;;5.60;;
48975;SDS011;34791;52.752;8.346;2023-05-10T09:52:28;11.43;;;6.55;;
48975;SDS011;34791;52.752;8.346;2023-05-10T09:54:53;13.18;;;7.82;;
48975;SDS011;34791;52.752;8.346;2023-05-10T09:57:23;15.88;;;8.82;;
48975;SDS011;34791;52.752;8.346;2023-05-10T09:59:49;15.68;;;7.93;;
48975;SDS011;34791;52.752;8.346;2023-05-10T10:02:15;16.52;;;9.80;;
48975;SDS011;34791;52.752;8.346;2023-05-10T10:04:41;15.55;;;9.05;;
48975;SDS011;34791;52.752;8.346;2023-05-10T10:07:06;17.33;;;9.80;;
48975;SDS011;34791;52.752;8.346;2023-05-10T10:09:32;15.13;;;8.43;;
48975;SDS011;34791;52.752;8.346;2023-05-10T10:11:58;13.52;;;7.38;;
48975;SDS011;34791;52.752;8.346;2023-05-10T10:14:24;11.00;;;6.57;;
48975;SDS011;34791;52.752;8.346;2023-05-10T10:16:50;11.10;;;6.82;;
48975;SDS011;34791;52.752;8.346;2023-05-10T10:19:19;11.88;;;7.63;;
48975;SDS011;34791;52.752;8.346;2023-05-10T10:21:45;10.13;;;6.47;;
48975;SDS011;34791;52.752;8.346;2023-05-10T10:24:10;11.88;;;7.50;;
48975;SDS011;34791;52.752;8.346;2023-05-10T10:26:36;10.55;;;6.97;;
48975;SDS011;34791;52.752;8.346;2023-05-10T10:29:10;12.00;;;6.63;;
48975;SDS011;34791;52.752;8.346;2023-05-10T10:31:52;11.90;;;6.72;;
48975;SDS011;34791;52.752;8.346;2023-05-10T10:34:28;9.43;;;5.77;;
48975;SDS011;34791;52.752;8.346;2023-05-10T10:36:54;13.00;;;7.82;;
48975;SDS011;34791;52.752;8.346;2023-05-10T10:39:19;9.00;;;4.80;;
48975;SDS011;34791;52.752;8.346;2023-05-10T10:41:52;8.05;;;4.70;;
48975;SDS011;34791;52.752;8.346;2023-05-10T10:44:24;8.60;;;4.25;;
48975;SDS011;34791;52.752;8.346;2023-05-10T10:49:49;7.78;;;3.75;;
48975;SDS011;34791;52.752;8.346;2023-05-10T10:52:26;9.07;;;3.80;;
48975;SDS011;34791;52.752;8.346;2023-05-10T10:55:04;8.45;;;4.10;;
48975;SDS011;34791;52.752;8.346;2023-05-10T10:57:42;9.48;;;5.15;;
48975;SDS011;34791;52.752;8.346;2023-05-10T11:02:56;9.15;;;5.00;;
48975;SDS011;34791;52.752;8.346;2023-05-10T11:05:41;7.40;;;4.60;;
48975;SDS011;34791;52.752;8.346;2023-05-10T11:08:09;7.00;;;4.50;;
48975;SDS011;34791;52.752;8.346;2023-05-10T11:10:35;6.93;;;3.80;;
48975;SDS011;34791;52.752;8.346;2023-05-10T11:13:08;6.18;;;3.33;;
48975;SDS011;34791;52.752;8.346;2023-05-10T11:15:34;5.97;;;2.90;;
48975;SDS011;34791;52.752;8.346;2023-05-10T11:17:59;4.28;;;2.83;;
48975;SDS011;34791;52.752;8.346;2023-05-10T11:20:28;5.35;;;3.15;;
48975;SDS011;34791;52.752;8.346;2023-05-10T11:22:58;6.53;;;3.58;;
48975;SDS011;34791;52.752;8.346;2023-05-10T11:25:26;5.28;;;2.95;;
48975;SDS011;34791;52.752;8.346;2023-05-10T11:27:51;4.55;;;2.70;;
48975;SDS011;34791;52.752;8.346;2023-05-10T11:30:17;6.72;;;3.35;;
48975;SDS011;34791;52.752;8.346;2023-05-10T11:32:42;5.53;;;2.60;;
48975;SDS011;34791;52.752;8.346;2023-05-10T11:35:08;5.78;;;2.85;;
48975;SDS011;34791;52.752;8.346;2023-05-10T11:37:33;5.03;;;3.17;;
48975;SDS011;34791;52.752;8.346;2023-05-10T11:39:59;5.65;;;3.20;;
48975;SDS011;34791;52.752;8.346;2023-05-10T11:42:24;6.05;;;3.40;;
48975;SDS011;34791;52.752;8.346;2023-05-10T11:44:49;5.65;;;2.80;;
48975;SDS011;34791;52.752;8.346;2023-05-10T11:47:15;4.90;;;3.30;;
48975;SDS011;34791;52.752;8.346;2023-05-10T11:49:43;6.22;;;3.80;;
48975;SDS011;34791;52.752;8.346;2023-05-10T11:52:08;7.10;;;4.00;;
48975;SDS011;34791;52.752;8.346;2023-05-10T11:54:35;8.00;;;4.40;;
48975;SDS011;34791;52.752;8.346;2023-05-10T11:57:01;9.43;;;5.30;;
48975;SDS011;34791;52.752;8.346;2023-05-10T11:59:26;7.57;;;4.47;;
48975;SDS011;34791;52.752;8.346;2023-05-10T12:01:52;8.05;;;5.18;;
48975;SDS011;34791;52.752;8.346;2023-05-10T12:04:17;7.60;;;4.20;;
48975;SDS011;34791;52.752;8.346;2023-05-10T12:06:42;5.88;;;3.50;;
48975;SDS011;34791;52.752;8.346;2023-05-10T12:09:08;7.78;;;3.42;;
48975;SDS011;34791;52.752;8.346;2023-05-10T12:11:36;5.85;;;2.90;;
48975;SDS011;34791;52.752;8.346;2023-05-10T12:14:03;8.90;;;3.25;;
48975;SDS011;34791;52.752;8.346;2023-05-10T12:16:29;4.88;;;3.40;;
48975;SDS011;34791;52.752;8.346;2023-05-10T12:18:58;8.90;;;3.13;;
48975;SDS011;34791;52.752;8.346;2023-05-10T12:21:24;4.35;;;2.88;;
48975;SDS011;34791;52.752;8.346;2023-05-10T12:23:50;4.00;;;2.53;;
48975;SDS011;34791;52.752;8.346;2023-05-10T12:26:16;4.65;;;2.58;;
48975;SDS011;34791;52.752;8.346;2023-05-10T12:28:41;6.38;;;2.90;;
48975;SDS011;34791;52.752;8.346;2023-05-10T12:31:07;3.67;;;2.50;;
48975;SDS011;34791;52.752;8.346;2023-05-10T12:33:39;5.13;;;2.80;;
48975;SDS011;34791;52.752;8.346;2023-05-10T12:36:06;4.40;;;2.70;;
48975;SDS011;34791;52.752;8.346;2023-05-10T12:38:32;4.88;;;2.80;;
48975;SDS011;34791;52.752;8.346;2023-05-10T12:40:59;6.60;;;2.80;;
48975;SDS011;34791;52.752;8.346;2023-05-10T12:43:24;4.90;;;2.90;;
48975;SDS011;34791;52.752;8.346;2023-05-10T12:45:50;5.13;;;3.13;;
48975;SDS011;34791;52.752;8.346;2023-05-10T12:48:15;6.00;;;3.00;;
48975;SDS011;34791;52.752;8.346;2023-05-10T12:50:40;5.30;;;3.20;;
48975;SDS011;34791;52.752;8.346;2023-05-10T12:53:06;6.55;;;3.50;;
48975;SDS011;34791;52.752;8.346;2023-05-10T12:55:31;6.88;;;3.63;;
48975;SDS011;34791;52.752;8.346;2023-05-10T12:57:56;7.18;;;3.35;;
48975;SDS011;34791;52.752;8.346;2023-05-10T13:00:22;4.82;;;3.15;;
48975;SDS011;34791;52.752;8.346;2023-05-10T13:02:47;5.88;;;3.40;;
48975;SDS011;34791;52.752;8.346;2023-05-10T13:05:12;7.72;;;3.45;;
48975;SDS011;34791;52.752;8.346;2023-05-10T13:07:38;5.95;;;3.17;;
48975;SDS011;34791;52.752;8.346;2023-05-10T13:10:03;4.95;;;2.75;;
48975;SDS011;34791;52.752;8.346;2023-05-10T13:12:29;5.18;;;2.80;;
48975;SDS011;34791;52.752;8.346;2023-05-10T13:14:54;5.22;;;3.28;;
48975;SDS011;34791;52.752;8.346;2023-05-10T13:17:20;4.90;;;2.47;;
48975;SDS011;34791;52.752;8.346;2023-05-10T13:19:45;4.18;;;2.45;;
48975;SDS011;34791;52.752;8.346;2023-05-10T13:22:10;6.05;;;3.15;;
48975;SDS011;34791;52.752;8.346;2023-05-10T13:24:36;5.00;;;2.50;;
48975;SDS011;34791;52.752;8.346;2023-05-10T13:27:01;3.70;;;2.30;;
48975;SDS011;34791;52.752;8.346;2023-05-10T13:29:26;4.30;;;2.55;;
48975;SDS011;34791;52.752;8.346;2023-05-10T13:31:52;4.88;;;2.95;;
48975;SDS011;34791;52.752;8.346;2023-05-10T13:34:17;4.13;;;2.78;;
48975;SDS011;34791;52.752;8.346;2023-05-10T13:36:45;5.57;;;3.10;;
48975;SDS011;34791;52.752;8.346;2023-05-10T13:39:10;4.75;;;3.15;;
48975;SDS011;34791;52.752;8.346;2023-05-10T13:41:35;5.07;;;3.20;;
48975;SDS011;34791;52.752;8.346;2023-05-10T13:44:01;4.47;;;2.72;;
48975;SDS011;34791;52.752;8.346;2023-05-10T13:46:28;4.65;;;2.70;;
48975;SDS011;34791;52.752;8.346;2023-05-10T13:48:54;4.25;;;2.80;;
48975;SDS011;34791;52.752;8.346;2023-05-10T13:51:19;6.35;;;2.42;;
48975;SDS011;34791;52.752;8.346;2023-05-10T13:53:45;4.68;;;2.60;;
48975;SDS011;34791;52.752;8.346;2023-05-10T13:56:12;5.53;;;2.40;;
48975;SDS011;34791;52.752;8.346;2023-05-10T13:58:37;4.43;;;1.98;;
48975;SDS011;34791;52.752;8.346;2023-05-10T14:01:02;3.03;;;1.75;;
48975;SDS011;34791;52.752;8.346;2023-05-10T14:03:27;3.05;;;1.60;;
48975;SDS011;34791;52.752;8.346;2023-05-10T14:05:53;5.28;;;2.13;;
48975;SDS011;34791;52.752;8.346;2023-05-10T14:08:18;4.20;;;2.45;;
48975;SDS011;34791;52.752;8.346;2023-05-10T14:10:43;4.40;;;2.47;;
48975;SDS011;34791;52.752;8.346;2023-05-10T14:13:09;4.35;;;3.05;;
48975;SDS011;34791;52.752;8.346;2023-05-10T14:15:34;4.88;;;3.03;;
48975;SDS011;34791;52.752;8.346;2023-05-10T14:17:59;7.15;;;3.75;;
48975;SDS011;34791;52.752;8.346;2023-05-10T14:20:25;5.15;;;3.60;;
48975;SDS011;34791;52.752;8.346;2023-05-10T14:22:50;7.80;;;4.00;;
48975;SDS011;34791;52.752;8.346;2023-05-10T14:25:16;7.07;;;4.30;;
48975;SDS011;34791;52.752;8.346;2023-05-10T14:27:41;8.40;;;3.80;;
48975;SDS011;34791;52.752;8.346;2023-05-10T14:30:06;6.53;;;3.45;;
48975;SDS011;34791;52.752;8.346;2023-05-10T14:32:32;5.60;;;3.05;;
48975;SDS011;34791;52.752;8.346;2023-05-10T14:34:57;5.78;;;2.75;;
48975;SDS011;34791;52.752;8.346;2023-05-10T14:37:22;5.03;;;2.80;;
48975;SDS011;34791;52.752;8.346;2023-05-10T14:39:48;7.00;;;3.03;;
48975;SDS011;34791;52.752;8.346;2023-05-10T14:42:13;6.60;;;3.15;;
48975;SDS011;34791;52.752;8.346;2023-05-10T14:44:38;5.20;;;3.20;;
48975;SDS011;34791;52.752;8.346;2023-05-10T14:47:04;6.68;;;3.10;;
48975;SDS011;34791;52.752;8.346;2023-05-10T14:49:30;5.28;;;2.70;;